createdAt,value
2023-03-14T00:00:01.132Z,139.8
2023-03-14T00:05:01.154Z,127.2
2023-03-14T00:10:01.104Z,120.6
2023-03-14T00:15:01.507Z,112.5
2023-03-14T00:20:01.510Z,93.4
2023-03-14T00:25:01.147Z,108.2
2023-03-14T00:30:01.027Z,127.5
2023-03-14T00:35:01.677Z,144.2
2023-03-14T00:40:01.133Z,162.8
2023-03-14T00:45:01.229Z,182.5
2023-03-14T00:50:01.356Z,183.0
2023-03-14T00:55:01.181Z,183.3
2023-03-14T01:00:01.132Z,182.0
2023-03-14T01:05:01.244Z,182.5
2023-03-14T01:10:01.360Z,180.7
2023-03-14T01:15:01.814Z,180.6
2023-03-14T01:20:01.599Z,179.2
2023-03-14T01:25:01.407Z,176.9
2023-03-14T01:30:01.045Z,165.5
2023-03-14T01:35:01.219Z,149.0
2023-03-14T01:40:01.151Z,134.5
2023-03-14T01:45:01.838Z,113.8
2023-03-14T02:00:01.169Z,107.6
2023-03-14T02:05:01.382Z,106.1
2023-03-14T02:10:01.146Z,105.0
2023-03-14T02:15:01.070Z,103.5
2023-03-14T02:20:01.019Z,101.7
2023-03-14T02:40:01.616Z,88.0
2023-03-14T02:45:02.602Z,89.9
2023-03-14T03:00:02.166Z,74.4
2023-03-14T03:05:02.298Z,80.8
2023-03-14T03:10:07.171Z,80.3
2023-03-14T03:15:02.229Z,83.9
2023-03-14T03:20:01.999Z,85.1
2023-03-14T03:25:01.981Z,83.1
2023-03-14T03:30:06.805Z,80.0
2023-03-14T03:35:02.297Z,78.0
2023-03-14T03:40:02.008Z,72.5
2023-03-14T03:45:01.899Z,68.6
2023-03-14T03:50:06.899Z,69.6
2023-03-14T03:55:06.857Z,69.6
2023-03-14T04:00:06.861Z,70.2
2023-03-14T04:05:02.461Z,71.6
2023-03-14T04:10:02.120Z,72.4
2023-03-14T04:15:02.065Z,73.0
2023-03-14T04:20:02.009Z,73.0
2023-03-14T04:25:01.996Z,73.6
2023-03-14T04:30:01.944Z,74.3
2023-03-14T04:35:02.223Z,75.4
2023-03-14T04:40:02.189Z,76.7
2023-03-14T04:45:01.947Z,77.2
2023-03-14T04:50:01.789Z,77.2
2023-03-14T04:55:06.908Z,76.3
2023-03-14T05:00:02.198Z,73.1
2023-03-14T05:05:02.230Z,70.6
2023-03-14T05:10:01.777Z,69.7
2023-03-14T05:15:04.933Z,69.0
2023-03-14T05:20:01.809Z,70.2
2023-03-14T05:25:01.962Z,73.3
2023-03-14T05:30:02.017Z,76.5
2023-03-14T05:35:01.928Z,78.6
2023-03-14T05:40:01.760Z,79.4
2023-03-14T05:45:01.827Z,77.6
2023-03-14T05:50:01.796Z,75.5
2023-03-14T05:55:01.878Z,74.5
2023-03-14T06:00:02.811Z,72.0
2023-03-14T06:05:02.775Z,75.3
2023-03-14T06:10:01.764Z,77.6
2023-03-14T06:15:01.901Z,78.4
2023-03-14T06:20:01.862Z,76.3
2023-03-14T06:25:07.696Z,82.5
2023-03-14T06:30:01.798Z,86.6
2023-03-14T06:35:01.992Z,90.0
2023-03-14T06:40:02.856Z,91.6
2023-03-14T06:45:02.386Z,96.5
2023-03-14T06:50:01.800Z,93.6
2023-03-14T06:55:01.997Z,91.3
2023-03-14T07:00:02.027Z,95.8
2023-03-14T07:05:01.852Z,95.0
2023-03-14T07:10:01.715Z,96.3
2023-03-14T07:20:01.718Z,98.5
2023-03-14T07:25:01.812Z,95.6
2023-03-14T07:30:01.893Z,102.4
2023-03-14T07:35:01.891Z,98.8
2023-03-14T07:40:01.943Z,96.8
2023-03-14T07:45:01.899Z,96.3
2023-03-14T07:50:01.792Z,94.1
2023-03-14T08:00:01.794Z,84.0
2023-03-14T08:05:01.766Z,83.8
2023-03-14T08:10:01.689Z,73.4
2023-03-14T08:15:01.870Z,64.6
2023-03-14T08:25:01.861Z,37.6
2023-03-14T08:30:01.687Z,21.2
2023-03-14T08:35:01.802Z,15.7
2023-03-14T17:25:01.432Z,14.9
2023-03-14T17:35:01.471Z,35.6
2023-03-14T17:40:01.265Z,50.4
2023-03-14T17:45:01.554Z,50.4
2023-03-14T18:00:01.498Z,35.4
2023-03-14T18:05:01.547Z,14.8
